sensor_id;sensor_type;location;lat;lon;timestamp;pressure;altitude;pressure_sealevel;temperature;humidity
64404;BME280;50726;54.912;-8.392;2022-08-21T00:00:42;100426.88;;;28.19;nan
64404;BME280;50726;54.912;-8.392;2022-08-21T00:03:09;100435.00;;;28.63;nan
64404;BME280;50726;54.912;-8.392;2022-08-21T00:05:47;100420.69;;;29.76;nan
64404;BME280;50726;54.912;-8.392;2022-08-21T00:08:16;100436.41;;;28.49;nan
64404;BME280;50726;54.912;-8.392;2022-08-21T00:10:43;100441.66;;;27.96;nan
64404;BME280;50726;54.912;-8.392;2022-08-21T00:13:10;100428.56;;;27.65;nan
64404;BME280;50726;54.912;-8.392;2022-08-21T00:15:37;100417.78;;;27.47;nan
64404;BME280;50726;54.912;-8.392;2022-08-21T00:18:06;100444.16;;;27.98;nan
64404;BME280;50726;54.912;-8.392;2022-08-21T00:20:33;100430.34;;;27.74;nan
64404;BME280;50726;54.912;-8.392;2022-08-21T00:22:59;100436.78;;;27.82;nan
64404;BME280;50726;54.912;-8.392;2022-08-21T00:25:25;100430.69;;;27.05;nan
64404;BME280;50726;54.912;-8.392;2022-08-21T00:27:51;100433.09;;;27.37;nan
64404;BME280;50726;54.912;-8.392;2022-08-21T00:30:19;100418.47;;;28.32;nan
64404;BME280;50726;54.912;-8.392;2022-08-21T00:32:46;100416.13;;;26.60;nan
64404;BME280;50726;54.912;-8.392;2022-08-21T00:35:15;100443.69;;;28.21;nan
64404;BME280;50726;54.912;-8.392;2022-08-21T00:37:41;100427.31;;;26.46;nan
64404;BME280;50726;54.912;-8.392;2022-08-21T00:40:12;100441.53;;;26.07;nan
64404;BME280;50726;54.912;-8.392;2022-08-21T00:42:38;100420.81;;;25.79;nan
64404;BME280;50726;54.912;-8.392;2022-08-21T00:45:05;100420.94;;;26.47;nan
64404;BME280;50726;54.912;-8.392;2022-08-21T00:47:31;100421.06;;;25.66;nan
64404;BME280;50726;54.912;-8.392;2022-08-21T00:49:56;100421.13;;;26.25;nan
64404;BME280;50726;54.912;-8.392;2022-08-21T00:52:25;100425.34;;;26.28;nan
64404;BME280;50726;54.912;-8.392;2022-08-21T00:54:54;100435.06;;;26.49;nan
64404;BME280;50726;54.912;-8.392;2022-08-21T00:57:24;100433.94;;;26.51;nan
64404;BME280;50726;54.912;-8.392;2022-08-21T00:59:51;100437.63;;;25.40;nan
64404;BME280;50726;54.912;-8.392;2022-08-21T01:02:19;100425.94;;;26.79;nan
64404;BME280;50726;54.912;-8.392;2022-08-21T01:04:47;100408.31;;;25.48;nan
64404;BME280;50726;54.912;-8.392;2022-08-21T01:07:12;100424.22;;;25.40;nan
64404;BME280;50726;54.912;-8.392;2022-08-21T01:09:39;100419.88;;;27.25;nan
64404;BME280;50726;54.912;-8.392;2022-08-21T01:12:06;100438.25;;;27.20;nan
64404;BME280;50726;54.912;-8.392;2022-08-21T01:14:32;100434.41;;;27.60;nan
64404;BME280;50726;54.912;-8.392;2022-08-21T01:17:00;100433.81;;;26.91;nan
64404;BME280;50726;54.912;-8.392;2022-08-21T01:19:29;100437.47;;;27.66;nan
64404;BME280;50726;54.912;-8.392;2022-08-21T01:21:55;100437.47;;;27.66;nan
64404;BME280;50726;54.912;-8.392;2022-08-21T01:24:22;100440.41;;;26.19;nan
64404;BME280;50726;54.912;-8.392;2022-08-21T01:26:51;100442.22;;;26.68;nan
64404;BME280;50726;54.912;-8.392;2022-08-21T01:29:29;100433.78;;;26.43;nan
64404;BME280;50726;54.912;-8.392;2022-08-21T01:31:57;100424.38;;;26.39;nan
64404;BME280;50726;54.912;-8.392;2022-08-21T01:34:23;100428.00;;;26.18;nan
64404;BME280;50726;54.912;-8.392;2022-08-21T01:36:49;100419.00;;;26.39;nan
64404;BME280;50726;54.912;-8.392;2022-08-21T01:39:15;100427.19;;;26.27;nan
64404;BME280;50726;54.912;-8.392;2022-08-21T01:41:41;100425.16;;;26.69;nan
64404;BME280;50726;54.912;-8.392;2022-08-21T01:44:07;100449.50;;;27.05;nan
64404;BME280;50726;54.912;-8.392;2022-08-21T01:46:32;100424.50;;;27.79;nan
64404;BME280;50726;54.912;-8.392;2022-08-21T01:48:58;100432.13;;;27.00;nan
64404;BME280;50726;54.912;-8.392;2022-08-21T01:51:24;100430.25;;;27.10;nan
64404;BME280;50726;54.912;-8.392;2022-08-21T01:53:49;100427.28;;;26.65;nan
64404;BME280;50726;54.912;-8.392;2022-08-21T01:56:16;100423.66;;;26.94;nan
64404;BME280;50726;54.912;-8.392;2022-08-21T01:58:47;100439.38;;;27.27;nan
64404;BME280;50726;54.912;-8.392;2022-08-21T02:01:14;100427.09;;;27.25;nan
64404;BME280;50726;54.912;-8.392;2022-08-21T02:03:40;100438.94;;;26.94;nan
64404;BME280;50726;54.912;-8.392;2022-08-21T02:06:12;100433.97;;;27.55;nan
64404;BME280;50726;54.912;-8.392;2022-08-21T02:08:40;100434.69;;;27.29;nan
64404;BME280;50726;54.912;-8.392;2022-08-21T02:11:06;100437.81;;;27.25;nan
64404;BME280;50726;54.912;-8.392;2022-08-21T02:13:32;100437.03;;;27.88;nan
64404;BME280;50726;54.912;-8.392;2022-08-21T02:15:57;100428.84;;;27.06;nan
64404;BME280;50726;54.912;-8.392;2022-08-21T02:18:23;100427.03;;;26.39;nan
64404;BME280;50726;54.912;-8.392;2022-08-21T02:20:49;100427.56;;;29.70;nan
64404;BME280;50726;54.912;-8.392;2022-08-21T02:23:15;100439.00;;;29.72;nan
64404;BME280;50726;54.912;-8.392;2022-08-21T02:25:41;100441.09;;;29.35;nan
64404;BME280;50726;54.912;-8.392;2022-08-21T02:28:10;100443.06;;;29.25;nan
64404;BME280;50726;54.912;-8.392;2022-08-21T02:30:39;100451.59;;;27.68;nan
64404;BME280;50726;54.912;-8.392;2022-08-21T02:33:06;100459.63;;;26.44;nan
64404;BME280;50726;54.912;-8.392;2022-08-21T02:35:36;100458.75;;;26.53;nan
64404;BME280;50726;54.912;-8.392;2022-08-21T02:38:05;100444.63;;;27.47;nan
64404;BME280;50726;54.912;-8.392;2022-08-21T02:40:32;100451.53;;;27.21;nan
64404;BME280;50726;54.912;-8.392;2022-08-21T02:42:59;100443.94;;;28.09;nan
64404;BME280;50726;54.912;-8.392;2022-08-21T02:45:25;100448.25;;;28.02;nan
64404;BME280;50726;54.912;-8.392;2022-08-21T02:47:53;100428.38;;;28.13;nan
64404;BME280;50726;54.912;-8.392;2022-08-21T02:50:37;100437.50;;;28.65;nan
64404;BME280;50726;54.912;-8.392;2022-08-21T02:53:04;100460.19;;;28.62;nan
64404;BME280;50726;54.912;-8.392;2022-08-21T02:55:32;100452.31;;;28.87;nan
64404;BME280;50726;54.912;-8.392;2022-08-21T02:57:59;100459.56;;;27.59;nan
64404;BME280;50726;54.912;-8.392;2022-08-21T03:00:29;100447.09;;;26.25;nan
64404;BME280;50726;54.912;-8.392;2022-08-21T03:02:57;100440.41;;;28.27;nan
64404;BME280;50726;54.912;-8.392;2022-08-21T03:05:23;100462.38;;;25.73;nan
64404;BME280;50726;54.912;-8.392;2022-08-21T03:07:50;100452.56;;;26.33;nan
64404;BME280;50726;54.912;-8.392;2022-08-21T03:10:17;100449.66;;;26.94;nan
64404;BME280;50726;54.912;-8.392;2022-08-21T03:12:42;100445.63;;;27.46;nan
64404;BME280;50726;54.912;-8.392;2022-08-21T03:15:16;100461.13;;;27.24;nan
64404;BME280;50726;54.912;-8.392;2022-08-21T03:17:43;100449.38;;;25.59;nan
64404;BME280;50726;54.912;-8.392;2022-08-21T03:20:09;100453.81;;;25.99;nan
64404;BME280;50726;54.912;-8.392;2022-08-21T03:22:35;100447.88;;;28.15;nan
64404;BME280;50726;54.912;-8.392;2022-08-21T03:25:03;100454.22;;;28.77;nan
64404;BME280;50726;54.912;-8.392;2022-08-21T03:27:28;100455.16;;;27.86;nan
64404;BME280;50726;54.912;-8.392;2022-08-21T03:29:56;100458.19;;;26.00;nan
64404;BME280;50726;54.912;-8.392;2022-08-21T03:32:22;100460.69;;;25.82;nan
64404;BME280;50726;54.912;-8.392;2022-08-21T03:34:48;100451.53;;;27.50;nan
64404;BME280;50726;54.912;-8.392;2022-08-21T03:37:14;100463.44;;;27.47;nan
64404;BME280;50726;54.912;-8.392;2022-08-21T03:39:40;100463.91;;;27.04;nan
64404;BME280;50726;54.912;-8.392;2022-08-21T03:42:07;100462.69;;;25.80;nan
64404;BME280;50726;54.912;-8.392;2022-08-21T03:44:33;100458.47;;;26.66;nan
64404;BME280;50726;54.912;-8.392;2022-08-21T03:47:00;100460.75;;;26.32;nan
64404;BME280;50726;54.912;-8.392;2022-08-21T03:49:26;100468.31;;;26.76;nan
64404;BME280;50726;54.912;-8.392;2022-08-21T03:51:52;100476.28;;;26.58;nan
64404;BME280;50726;54.912;-8.392;2022-08-21T03:54:18;100477.97;;;26.29;nan
64404;BME280;50726;54.912;-8.392;2022-08-21T03:56:44;100465.97;;;26.63;nan
64404;BME280;50726;54.912;-8.392;2022-08-21T03:59:10;100487.84;;;26.48;nan
64404;BME280;50726;54.912;-8.392;2022-08-21T04:01:37;100478.50;;;26.92;nan
64404;BME280;50726;54.912;-8.392;2022-08-21T04:04:04;100474.22;;;26.99;nan
64404;BME280;50726;54.912;-8.392;2022-08-21T04:06:30;100464.97;;;26.64;nan
64404;BME280;50726;54.912;-8.392;2022-08-21T04:08:56;100469.50;;;26.44;nan
64404;BME280;50726;54.912;-8.392;2022-08-21T04:11:22;100481.88;;;26.84;nan
64404;BME280;50726;54.912;-8.392;2022-08-21T04:13:49;100470.78;;;27.17;nan
64404;BME280;50726;54.912;-8.392;2022-08-21T04:16:15;100475.44;;;26.37;nan
64404;BME280;50726;54.912;-8.392;2022-08-21T04:18:41;100486.13;;;26.57;nan
64404;BME280;50726;54.912;-8.392;2022-08-21T04:21:09;100488.06;;;27.04;nan
64404;BME280;50726;54.912;-8.392;2022-08-21T04:23:36;100459.97;;;27.65;nan
64404;BME280;50726;54.912;-8.392;2022-08-21T04:26:02;100487.41;;;28.59;nan
64404;BME280;50726;54.912;-8.392;2022-08-21T04:28:28;100492.69;;;27.78;nan
64404;BME280;50726;54.912;-8.392;2022-08-21T04:30:54;100479.91;;;27.62;nan
64404;BME280;50726;54.912;-8.392;2022-08-21T04:33:21;100486.81;;;29.18;nan
64404;BME280;50726;54.912;-8.392;2022-08-21T04:35:48;100497.13;;;28.52;nan
64404;BME280;50726;54.912;-8.392;2022-08-21T04:38:14;100494.16;;;26.08;nan
64404;BME280;50726;54.912;-8.392;2022-08-21T04:40:40;100484.63;;;26.25;nan
64404;BME280;50726;54.912;-8.392;2022-08-21T04:43:08;100491.53;;;26.27;nan
64404;BME280;50726;54.912;-8.392;2022-08-21T04:45:42;100490.47;;;27.92;nan
64404;BME280;50726;54.912;-8.392;2022-08-21T04:48:10;100485.97;;;27.64;nan
64404;BME280;50726;54.912;-8.392;2022-08-21T04:50:43;100495.38;;;27.02;nan
64404;BME280;50726;54.912;-8.392;2022-08-21T04:53:18;100478.78;;;26.69;nan
64404;BME280;50726;54.912;-8.392;2022-08-21T04:55:44;100504.75;;;26.78;nan
64404;BME280;50726;54.912;-8.392;2022-08-21T04:58:13;100494.59;;;26.62;nan
64404;BME280;50726;54.912;-8.392;2022-08-21T05:00:40;100513.53;;;27.56;nan
64404;BME280;50726;54.912;-8.392;2022-08-21T05:03:08;100512.59;;;27.19;nan
64404;BME280;50726;54.912;-8.392;2022-08-21T05:05:35;100498.69;;;26.47;nan
64404;BME280;50726;54.912;-8.392;2022-08-21T05:08:01;100509.25;;;26.88;nan
64404;BME280;50726;54.912;-8.392;2022-08-21T05:10:28;100512.56;;;27.29;nan
64404;BME280;50726;54.912;-8.392;2022-08-21T05:12:54;100502.81;;;26.51;nan
64404;BME280;50726;54.912;-8.392;2022-08-21T05:15:20;100522.53;;;26.79;nan
64404;BME280;50726;54.912;-8.392;2022-08-21T05:17:46;100503.66;;;26.51;nan
64404;BME280;50726;54.912;-8.392;2022-08-21T05:20:13;100521.84;;;26.77;nan
64404;BME280;50726;54.912;-8.392;2022-08-21T05:22:40;100532.03;;;27.31;nan
64404;BME280;50726;54.912;-8.392;2022-08-21T05:25:08;100521.41;;;27.40;nan
64404;BME280;50726;54.912;-8.392;2022-08-21T05:27:34;100518.47;;;26.56;nan
64404;BME280;50726;54.912;-8.392;2022-08-21T05:30:00;100534.56;;;28.17;nan
64404;BME280;50726;54.912;-8.392;2022-08-21T05:32:27;100536.94;;;27.46;nan
64404;BME280;50726;54.912;-8.392;2022-08-21T05:34:53;100537.94;;;27.35;nan
64404;BME280;50726;54.912;-8.392;2022-08-21T05:37:20;100542.50;;;27.34;nan
64404;BME280;50726;54.912;-8.392;2022-08-21T05:39:45;100526.94;;;27.94;nan
64404;BME280;50726;54.912;-8.392;2022-08-21T05:42:12;100534.47;;;27.25;nan
64404;BME280;50726;54.912;-8.392;2022-08-21T05:44:38;100537.88;;;27.65;nan
64404;BME280;50726;54.912;-8.392;2022-08-21T05:47:09;100539.41;;;28.13;nan
64404;BME280;50726;54.912;-8.392;2022-08-21T05:49:35;100538.81;;;27.36;nan
64404;BME280;50726;54.912;-8.392;2022-08-21T05:52:01;100548.50;;;27.08;nan
64404;BME280;50726;54.912;-8.392;2022-08-21T05:54:27;100555.09;;;27.72;nan
64404;BME280;50726;54.912;-8.392;2022-08-21T05:56:52;100564.88;;;27.15;nan
64404;BME280;50726;54.912;-8.392;2022-08-21T05:59:18;100564.38;;;28.06;nan
64404;BME280;50726;54.912;-8.392;2022-08-21T06:01:44;100549.75;;;29.17;nan
64404;BME280;50726;54.912;-8.392;2022-08-21T06:04:11;100560.97;;;30.25;nan
64404;BME280;50726;54.912;-8.392;2022-08-21T06:06:37;100577.22;;;30.59;nan
64404;BME280;50726;54.912;-8.392;2022-08-21T06:09:04;100583.00;;;30.04;nan
64404;BME280;50726;54.912;-8.392;2022-08-21T06:11:30;100583.59;;;30.41;nan
64404;BME280;50726;54.912;-8.392;2022-08-21T06:13:56;100584.66;;;29.97;nan
64404;BME280;50726;54.912;-8.392;2022-08-21T06:16:22;100588.09;;;28.75;nan
64404;BME280;50726;54.912;-8.392;2022-08-21T06:18:48;100592.75;;;29.62;nan
64404;BME280;50726;54.912;-8.392;2022-08-21T06:21:15;100601.91;;;29.16;nan
64404;BME280;50726;54.912;-8.392;2022-08-21T06:23:41;100588.31;;;28.27;nan
64404;BME280;50726;54.912;-8.392;2022-08-21T06:26:07;100587.06;;;28.21;nan
64404;BME280;50726;54.912;-8.392;2022-08-21T06:28:35;100600.44;;;30.26;nan
64404;BME280;50726;54.912;-8.392;2022-08-21T06:31:17;100594.41;;;30.41;nan
64404;BME280;50726;54.912;-8.392;2022-08-21T06:33:43;100592.38;;;30.60;nan
64404;BME280;50726;54.912;-8.392;2022-08-21T06:36:09;100602.56;;;30.83;nan
64404;BME280;50726;54.912;-8.392;2022-08-21T06:38:35;100602.22;;;29.40;nan
64404;BME280;50726;54.912;-8.392;2022-08-21T06:41:02;100603.38;;;28.56;nan
64404;BME280;50726;54.912;-8.392;2022-08-21T06:43:27;100602.84;;;29.95;nan
64404;BME280;50726;54.912;-8.392;2022-08-21T06:45:53;100607.69;;;30.26;nan
64404;BME280;50726;54.912;-8.392;2022-08-21T06:48:19;100606.72;;;30.44;nan
64404;BME280;50726;54.912;-8.392;2022-08-21T06:50:46;100625.97;;;30.06;nan
64404;BME280;50726;54.912;-8.392;2022-08-21T06:53:15;100629.50;;;30.06;nan
64404;BME280;50726;54.912;-8.392;2022-08-21T06:55:41;100626.63;;;29.65;nan
64404;BME280;50726;54.912;-8.392;2022-08-21T06:58:08;100626.44;;;30.01;nan
64404;BME280;50726;54.912;-8.392;2022-08-21T07:00:37;100639.09;;;29.66;nan
64404;BME280;50726;54.912;-8.392;2022-08-21T07:03:03;100636.47;;;29.03;nan
64404;BME280;50726;54.912;-8.392;2022-08-21T07:05:30;100639.06;;;29.39;nan
64404;BME280;50726;54.912;-8.392;2022-08-21T07:07:56;100629.06;;;28.50;nan
64404;BME280;50726;54.912;-8.392;2022-08-21T07:10:23;100642.22;;;29.08;nan
64404;BME280;50726;54.912;-8.392;2022-08-21T07:12:50;100638.78;;;28.33;nan
64404;BME280;50726;54.912;-8.392;2022-08-21T07:15:15;100643.56;;;28.39;nan
64404;BME280;50726;54.912;-8.392;2022-08-21T07:17:41;100640.50;;;28.99;nan
64404;BME280;50726;54.912;-8.392;2022-08-21T07:20:07;100639.16;;;30.09;nan
64404;BME280;50726;54.912;-8.392;2022-08-21T07:22:34;100626.78;;;28.56;nan
64404;BME280;50726;54.912;-8.392;2022-08-21T07:25:01;100637.19;;;28.22;nan
64404;BME280;50726;54.912;-8.392;2022-08-21T07:27:26;100641.84;;;28.20;nan
64404;BME280;50726;54.912;-8.392;2022-08-21T07:29:52;100631.38;;;27.31;nan
64404;BME280;50726;54.912;-8.392;2022-08-21T07:32:18;100629.56;;;27.32;nan
64404;BME280;50726;54.912;-8.392;2022-08-21T07:34:43;100639.84;;;28.50;nan
64404;BME280;50726;54.912;-8.392;2022-08-21T07:37:09;100643.53;;;29.75;nan
64404;BME280;50726;54.912;-8.392;2022-08-21T07:39:35;100645.38;;;29.74;nan
64404;BME280;50726;54.912;-8.392;2022-08-21T07:42:02;100660.09;;;29.54;nan
64404;BME280;50726;54.912;-8.392;2022-08-21T07:44:28;100642.38;;;29.78;nan
64404;BME280;50726;54.912;-8.392;2022-08-21T07:46:54;100646.78;;;29.87;nan
64404;BME280;50726;54.912;-8.392;2022-08-21T07:49:19;100640.22;;;29.90;nan
64404;BME280;50726;54.912;-8.392;2022-08-21T07:51:45;100636.97;;;29.78;nan
64404;BME280;50726;54.912;-8.392;2022-08-21T07:54:11;100625.84;;;28.83;nan
64404;BME280;50726;54.912;-8.392;2022-08-21T07:56:37;100630.00;;;28.13;nan
64404;BME280;50726;54.912;-8.392;2022-08-21T07:59:02;100628.31;;;28.58;nan
64404;BME280;50726;54.912;-8.392;2022-08-21T08:01:28;100636.31;;;28.86;nan
64404;BME280;50726;54.912;-8.392;2022-08-21T08:03:55;100618.88;;;28.90;nan
64404;BME280;50726;54.912;-8.392;2022-08-21T08:06:21;100630.94;;;28.86;nan
64404;BME280;50726;54.912;-8.392;2022-08-21T08:08:48;100628.47;;;29.99;nan
64404;BME280;50726;54.912;-8.392;2022-08-21T08:11:14;100632.56;;;31.04;nan
64404;BME280;50726;54.912;-8.392;2022-08-21T08:13:48;100640.81;;;30.10;nan
64404;BME280;50726;54.912;-8.392;2022-08-21T08:16:15;100640.44;;;29.43;nan
64404;BME280;50726;54.912;-8.392;2022-08-21T08:18:41;100641.03;;;29.02;nan
64404;BME280;50726;54.912;-8.392;2022-08-21T08:21:08;100636.34;;;29.92;nan
64404;BME280;50726;54.912;-8.392;2022-08-21T08:23:34;100635.06;;;30.64;nan
64404;BME280;50726;54.912;-8.392;2022-08-21T08:26:01;100645.13;;;30.37;nan
64404;BME280;50726;54.912;-8.392;2022-08-21T08:28:28;100637.56;;;30.41;nan
64404;BME280;50726;54.912;-8.392;2022-08-21T08:30:55;100642.66;;;29.74;nan
64404;BME280;50726;54.912;-8.392;2022-08-21T08:33:21;100625.16;;;30.98;nan
64404;BME280;50726;54.912;-8.392;2022-08-21T08:35:49;100635.41;;;31.19;nan
64404;BME280;50726;54.912;-8.392;2022-08-21T08:38:17;100635.69;;;29.90;nan
64404;BME280;50726;54.912;-8.392;2022-08-21T08:43:36;100634.69;;;31.59;nan
64404;BME280;50726;54.912;-8.392;2022-08-21T08:46:06;100646.75;;;31.31;nan
64404;BME280;50726;54.912;-8.392;2022-08-21T08:48:49;100649.94;;;30.77;nan
64404;BME280;50726;54.912;-8.392;2022-08-21T08:51:47;100665.06;;;30.45;nan
64404;BME280;50726;54.912;-8.392;2022-08-21T08:57:24;100656.53;;;30.83;nan
64404;BME280;50726;54.912;-8.392;2022-08-21T08:59:53;100672.06;;;31.14;nan
64404;BME280;50726;54.912;-8.392;2022-08-21T09:02:21;100677.69;;;30.44;nan
64404;BME280;50726;54.912;-8.392;2022-08-21T09:04:50;100675.13;;;30.94;nan
64404;BME280;50726;54.912;-8.392;2022-08-21T09:10:23;100667.50;;;31.56;nan
64404;BME280;50726;54.912;-8.392;2022-08-21T09:13:19;100667.16;;;31.26;nan
64404;BME280;50726;54.912;-8.392;2022-08-21T09:24:47;100672.19;;;33.59;nan
64404;BME280;50726;54.912;-8.392;2022-08-21T09:29:17;100665.44;;;32.14;nan
64404;BME280;50726;54.912;-8.392;2022-08-21T09:31:45;100679.50;;;32.73;nan
64404;BME280;50726;54.912;-8.392;2022-08-21T09:34:12;100670.22;;;32.04;nan
64404;BME280;50726;54.912;-8.392;2022-08-21T09:36:47;100670.69;;;33.03;nan
64404;BME280;50726;54.912;-8.392;2022-08-21T09:39:30;100674.22;;;32.80;nan
64404;BME280;50726;54.912;-8.392;2022-08-21T09:42:05;100673.38;;;33.03;nan
64404;BME280;50726;54.912;-8.392;2022-08-21T09:44:34;100675.13;;;32.40;nan
64404;BME280;50726;54.912;-8.392;2022-08-21T09:47:05;100676.75;;;33.05;nan
64404;BME280;50726;54.912;-8.392;2022-08-21T09:49:34;100673.06;;;32.51;nan
64404;BME280;50726;54.912;-8.392;2022-08-21T09:52:00;100680.94;;;33.31;nan
64404;BME280;50726;54.912;-8.392;2022-08-21T09:54:30;100676.84;;;32.88;nan
64404;BME280;50726;54.912;-8.392;2022-08-21T09:57:14;100676.25;;;32.54;nan
64404;BME280;50726;54.912;-8.392;2022-08-21T10:00:25;100683.59;;;33.99;nan
64404;BME280;50726;54.912;-8.392;2022-08-21T10:02:51;100688.84;;;34.16;nan
64404;BME280;50726;54.912;-8.392;2022-08-21T10:05:38;100682.22;;;33.58;nan
64404;BME280;50726;54.912;-8.392;2022-08-21T10:08:04;100687.78;;;32.48;nan
64404;BME280;50726;54.912;-8.392;2022-08-21T10:10:36;100693.09;;;32.88;nan
64404;BME280;50726;54.912;-8.392;2022-08-21T10:13:22;100694.72;;;32.03;nan
64404;BME280;50726;54.912;-8.392;2022-08-21T10:18:39;100686.44;;;33.61;nan
64404;BME280;50726;54.912;-8.392;2022-08-21T10:21:26;100690.72;;;33.17;nan
64404;BME280;50726;54.912;-8.392;2022-08-21T10:27:33;100699.50;;;34.33;nan
64404;BME280;50726;54.912;-8.392;2022-08-21T10:30:21;100700.41;;;34.40;nan
64404;BME280;50726;54.912;-8.392;2022-08-21T10:32:56;100702.75;;;33.53;nan
64404;BME280;50726;54.912;-8.392;2022-08-21T10:35:28;100706.09;;;32.70;nan
64404;BME280;50726;54.912;-8.392;2022-08-21T10:54:44;100711.00;;;33.74;nan
64404;BME280;50726;54.912;-8.392;2022-08-21T11:00:19;100711.31;;;34.10;nan
64404;BME280;50726;54.912;-8.392;2022-08-21T11:03:11;100709.44;;;34.47;nan
64404;BME280;50726;54.912;-8.392;2022-08-21T11:05:42;100704.72;;;34.71;nan
64404;BME280;50726;54.912;-8.392;2022-08-21T11:08:12;100704.34;;;35.18;nan
64404;BME280;50726;54.912;-8.392;2022-08-21T11:10:44;100701.25;;;35.50;nan
64404;BME280;50726;54.912;-8.392;2022-08-21T11:15:56;100711.28;;;34.25;nan
64404;BME280;50726;54.912;-8.392;2022-08-21T11:18:29;100701.69;;;35.03;nan
64404;BME280;50726;54.912;-8.392;2022-08-21T11:29:19;100718.88;;;33.84;nan
64404;BME280;50726;54.912;-8.392;2022-08-21T11:36:56;100713.47;;;35.60;nan
64404;BME280;50726;54.912;-8.392;2022-08-21T11:45:10;100712.75;;;35.23;nan
64404;BME280;50726;54.912;-8.392;2022-08-21T11:50:13;100719.84;;;35.17;nan
64404;BME280;50726;54.912;-8.392;2022-08-21T11:52:52;100732.97;;;35.64;nan
64404;BME280;50726;54.912;-8.392;2022-08-21T11:55:36;100719.66;;;35.47;nan
64404;BME280;50726;54.912;-8.392;2022-08-21T11:58:09;100735.59;;;34.48;nan
64404;BME280;50726;54.912;-8.392;2022-08-21T12:03:51;100738.09;;;34.65;nan
64404;BME280;50726;54.912;-8.392;2022-08-21T12:06:35;100739.94;;;34.27;nan
64404;BME280;50726;54.912;-8.392;2022-08-21T12:09:07;100741.28;;;34.53;nan
64404;BME280;50726;54.912;-8.392;2022-08-21T12:11:48;100747.03;;;34.28;nan
64404;BME280;50726;54.912;-8.392;2022-08-21T12:14:17;100745.53;;;33.81;nan
64404;BME280;50726;54.912;-8.392;2022-08-21T12:16:46;100745.03;;;33.00;nan
64404;BME280;50726;54.912;-8.392;2022-08-21T12:22:07;100752.88;;;35.43;nan
64404;BME280;50726;54.912;-8.392;2022-08-21T12:24:49;100748.63;;;35.97;nan
64404;BME280;50726;54.912;-8.392;2022-08-21T12:27:26;100754.28;;;34.06;nan
64404;BME280;50726;54.912;-8.392;2022-08-21T12:30:06;100745.09;;;34.74;nan
64404;BME280;50726;54.912;-8.392;2022-08-21T12:32:43;100740.28;;;35.64;nan
64404;BME280;50726;54.912;-8.392;2022-08-21T12:37:43;100736.38;;;35.73;nan
64404;BME280;50726;54.912;-8.392;2022-08-21T12:42:46;100742.63;;;36.51;nan
64404;BME280;50726;54.912;-8.392;2022-08-21T12:47:59;100743.38;;;36.93;nan
64404;BME280;50726;54.912;-8.392;2022-08-21T12:50:38;100731.69;;;36.44;nan
64404;BME280;50726;54.912;-8.392;2022-08-21T12:53:28;100737.94;;;35.89;nan
64404;BME280;50726;54.912;-8.392;2022-08-21T12:55:52;100743.34;;;32.67;nan
64404;BME280;50726;54.912;-8.392;2022-08-21T12:58:22;100748.84;;;34.06;nan
64404;BME280;50726;54.912;-8.392;2022-08-21T13:01:02;100745.69;;;34.54;nan
64404;BME280;50726;54.912;-8.392;2022-08-21T13:03:28;100753.56;;;34.86;nan
64404;BME280;50726;54.912;-8.392;2022-08-21T13:05:54;100730.47;;;35.69;nan
64404;BME280;50726;54.912;-8.392;2022-08-21T13:08:21;100731.03;;;34.04;nan
64404;BME280;50726;54.912;-8.392;2022-08-21T13:10:58;100732.19;;;35.70;nan
64404;BME280;50726;54.912;-8.392;2022-08-21T13:13:26;100741.47;;;33.61;nan
64404;BME280;50726;54.912;-8.392;2022-08-21T13:15:58;100744.09;;;34.45;nan
64404;BME280;50726;54.912;-8.392;2022-08-21T13:18:27;100745.81;;;35.05;nan
64404;BME280;50726;54.912;-8.392;2022-08-21T13:21:21;100736.34;;;34.79;nan
64404;BME280;50726;54.912;-8.392;2022-08-21T13:23:46;100742.41;;;35.18;nan
64404;BME280;50726;54.912;-8.392;2022-08-21T13:28:39;100744.78;;;34.02;nan
64404;BME280;50726;54.912;-8.392;2022-08-21T13:31:07;100736.22;;;34.65;nan
64404;BME280;50726;54.912;-8.392;2022-08-21T13:33:40;100723.91;;;35.85;nan
64404;BME280;50726;54.912;-8.392;2022-08-21T13:36:10;100735.84;;;37.09;nan
64404;BME280;50726;54.912;-8.392;2022-08-21T13:38:39;100730.84;;;37.26;nan
64404;BME280;50726;54.912;-8.392;2022-08-21T13:41:16;100734.06;;;38.62;nan
64404;BME280;50726;54.912;-8.392;2022-08-21T13:43:48;100728.03;;;36.65;nan
64404;BME280;50726;54.912;-8.392;2022-08-21T13:46:14;100737.81;;;36.04;nan
64404;BME280;50726;54.912;-8.392;2022-08-21T13:48:41;100748.28;;;36.07;nan
64404;BME280;50726;54.912;-8.392;2022-08-21T13:51:09;100751.50;;;34.51;nan
64404;BME280;50726;54.912;-8.392;2022-08-21T13:56:08;100744.16;;;34.15;nan
64404;BME280;50726;54.912;-8.392;2022-08-21T13:58:43;100747.88;;;33.99;nan
64404;BME280;50726;54.912;-8.392;2022-08-21T14:03:45;100752.97;;;34.69;nan
64404;BME280;50726;54.912;-8.392;2022-08-21T14:06:19;100758.03;;;33.28;nan
64404;BME280;50726;54.912;-8.392;2022-08-21T14:09:01;100753.94;;;33.47;nan
64404;BME280;50726;54.912;-8.392;2022-08-21T14:11:32;100760.69;;;33.75;nan
64404;BME280;50726;54.912;-8.392;2022-08-21T14:14:06;100750.50;;;34.22;nan
64404;BME280;50726;54.912;-8.392;2022-08-21T14:16:55;100751.97;;;34.92;nan
64404;BME280;50726;54.912;-8.392;2022-08-21T14:22:22;100763.03;;;34.23;nan
64404;BME280;50726;54.912;-8.392;2022-08-21T14:24:49;100772.44;;;33.67;nan
64404;BME280;50726;54.912;-8.392;2022-08-21T14:27:17;100774.28;;;32.41;nan
64404;BME280;50726;54.912;-8.392;2022-08-21T14:29:43;100768.50;;;33.55;nan
64404;BME280;50726;54.912;-8.392;2022-08-21T14:32:19;100769.31;;;32.53;nan
64404;BME280;50726;54.912;-8.392;2022-08-21T14:34:46;100762.22;;;33.54;nan
64404;BME280;50726;54.912;-8.392;2022-08-21T14:37:12;100763.72;;;33.57;nan
64404;BME280;50726;54.912;-8.392;2022-08-21T14:39:38;100756.41;;;34.11;nan
64404;BME280;50726;54.912;-8.392;2022-08-21T14:42:04;100757.31;;;34.33;nan
64404;BME280;50726;54.912;-8.392;2022-08-21T14:44:29;100740.50;;;37.15;nan